Flight Track Log - Related Links

Times and Time Zones

All times are in EST time to prevent confusion due to time zone crossing. See the EGF3181 flight status page for this flight to view local times or setup timezone preferences in your user account.

Time Position Orientation Groundspeed Altitude Reporting Facility
EST Latitude Longitude Course Direction KTS MPH feet Rate Location/Type
Wed 07:19:00 PM 40.2827 -77.0321 303° West  Level FlightAware Approximate
Wed 07:20:00 PM 40.3352 -77.1194 311° West  Level FlightAware Approximate
Wed 07:20:02 PM 40.2872 -76.9506 307° West 211 243 7,200  Level New York Center
Wed 07:21:00 PM 40.3912 -77.2034 311° West  Level FlightAware Approximate
Wed 07:21:02 PM 40.3272 -77.0222 306° West 232 267 9,800  Level New York Center
Wed 07:22:00 PM 40.4420 -77.2919 323° Northwest  Level FlightAware Approximate
Wed 07:22:03 PM 40.3636 -77.0856 307° West 232 267 11,700  Level New York Center
Wed 07:23:00 PM 40.4963 -77.3759 303° West  Level FlightAware Approximate
Wed 07:23:02 PM 40.4092 -77.1658 307° West 238 274 13,900  Level New York Center
Wed 07:24:02 PM 40.4453 -77.2319 306° West 247 284 15,400 1,600 Climbing New York Center
Wed 07:25:02 PM 40.4947 -77.3186 307° West 253 291 17,100 1,350 Climbing New York Center
Wed 07:26:02 PM 40.5347 -77.3881 307° West 259 298 18,100 1,375 Climbing New York Center
Wed 07:28:14 PM 40.6400 -77.5797 306° West 285 328 21,500 1,485 Climbing Cleveland Center
Wed 07:29:16 PM 40.6486 -77.6833 276° West 282 325 22,900 1,415 Climbing Cleveland Center
Wed 07:30:17 PM 40.6558 -77.7867 275° West 283 326 24,400 1,463 Climbing Cleveland Center
Wed 07:31:19 PM 40.6681 -77.8886 279° West 283 326 25,900 1,452 Climbing Cleveland Center
Wed 07:32:21 PM 40.6825 -77.9875 281° West 282 325 27,400 1,403 Climbing Cleveland Center
Wed 07:33:23 PM 40.6958 -78.0858 280° West 274 315 28,800 1,258 Climbing Cleveland Center
Wed 07:34:25 PM 40.7125 -78.2064 280° West 275 316 30,000 1,065 Climbing Cleveland Center
Wed 07:35:27 PM 40.7264 -78.3086 280° West 280 322 31,000 1,016 Climbing Cleveland Center
Wed 07:36:29 PM 40.7411 -78.4128 281° West 284 327 32,100 1,113 Climbing Cleveland Center
Wed 07:37:31 PM 40.7544 -78.5183 280° West 287 330 33,300 1,171 Climbing Cleveland Center
Wed 07:38:32 PM 40.7700 -78.6219 281° West 288 331 34,500 1,171 Climbing Cleveland Center
Wed 07:39:34 PM 40.7831 -78.7225 280° West 281 323 35,700 726 Climbing Cleveland Center
Wed 07:40:36 PM 40.7961 -78.8225 280° West 276 318 36,000 145 Climbing Cleveland Center
Wed 07:41:38 PM 40.8128 -78.9522 280° West 297 342 36,000  Level Cleveland Center
Wed 07:42:40 PM 40.8286 -79.0719 280° West 320 368 36,000  Level Cleveland Center
Wed 07:43:42 PM 40.8444 -79.1936 280° West 335 386 36,000  Level Cleveland Center
Wed 07:44:44 PM 40.8603 -79.3161 280° West 336 387 36,000  Level Cleveland Center
Wed 07:45:46 PM 40.8753 -79.4367 279° West 336 387 36,000  Level Cleveland Center
Wed 07:46:48 PM 40.8908 -79.5567 280° West 335 386 36,000  Level Cleveland Center
Wed 07:47:50 PM 40.9053 -79.6761 279° West 333 383 36,000  Level Cleveland Center
Wed 07:48:52 PM 40.9222 -79.8175 279° West 329 379 36,000  Level Cleveland Center
Wed 07:49:54 PM 40.9367 -79.9358 279° West 329 379 36,000  Level Cleveland Center
Wed 07:50:56 PM 40.9503 -80.0533 279° West 329 379 36,000  Level Cleveland Center
Wed 07:51:58 PM 40.9644 -80.1694 279° West 326 375 36,000  Level Cleveland Center
Wed 07:53:00 PM 40.9789 -80.2858 279° West 324 373 36,000  Level Cleveland Center
Wed 07:54:02 PM 40.9956 -80.4253 279° West 324 373 36,000  Level Cleveland Center
Wed 07:55:04 PM 41.0089 -80.5425 279° West 324 373 36,000  Level Cleveland Center
Wed 07:56:06 PM 41.0222 -80.6614 278° West 324 373 36,000  Level Cleveland Center
Wed 07:57:08 PM 41.0369 -80.7794 279° West 325 374 36,000  Level Cleveland Center
Wed 07:58:10 PM 41.0497 -80.8983 278° West 325 374 36,000  Level Cleveland Center
Wed 07:59:12 PM 41.0575 -81.0183 275° West 326 375 36,000  Level Cleveland Center
Wed 08:00:14 PM 41.0658 -81.1508 275° West 327 376 36,000  Level Cleveland Center
Wed 08:01:16 PM 41.0739 -81.2722 275° West 327 376 36,000  Level Cleveland Center
Wed 08:02:18 PM 41.0819 -81.4169 274° West 329 379 36,000  Level Cleveland Center
Wed 08:03:20 PM 41.0897 -81.5406 275° West 330 380 36,000  Level Cleveland Center
Wed 08:04:22 PM 41.0978 -81.6644 275° West 330 380 36,000  Level Cleveland Center
Wed 08:05:24 PM 41.1053 -81.7881 275° West 330 380 36,000  Level Cleveland Center
Wed 08:06:26 PM 41.1117 -81.9117 274° West 330 380 36,000  Level Cleveland Center
Wed 08:07:28 PM 41.1181 -82.0339 274° West 330 380 36,000  Level Cleveland Center
Wed 08:08:30 PM 41.1258 -82.1558 275° West 329 379 36,000  Level Cleveland Center
Wed 08:09:32 PM 41.1322 -82.2769 274° West 329 379 36,000  Level Cleveland Center
Wed 08:10:34 PM 41.1386 -82.4033 274° West 334 384 36,000  Level Cleveland Center
Wed 08:11:36 PM 41.1450 -82.5325 274° West 344 396 36,000  Level Cleveland Center
Wed 08:12:39 PM 41.1536 -82.6839 274° West 346 398 36,000  Level Cleveland Center
Wed 08:13:41 PM 41.1597 -82.8133 274° West 347 399 36,000  Level Cleveland Center
Wed 08:14:43 PM 41.1661 -82.9419 274° West 347 399 36,000  Level Cleveland Center
Wed 08:15:45 PM 41.1722 -83.0706 274° West 347 399 36,000  Level Cleveland Center
Wed 08:16:47 PM 41.1797 -83.2047 274° West 347 399 36,000  Level Cleveland Center
Wed 08:17:49 PM 41.1853 -83.3314 273° West 347 399 36,000  Level Cleveland Center
Wed 08:18:51 PM 41.1908 -83.4614 273° West 348 400 36,000  Level Cleveland Center
Wed 08:19:53 PM 41.1969 -83.5906 274° West 348 400 36,000  Level Cleveland Center
Wed 08:20:55 PM 41.2028 -83.7194 273° West 349 402 36,000  Level Cleveland Center
Wed 08:21:57 PM 41.2092 -83.8750 273° West 349 402 36,000  Level Cleveland Center
Wed 08:22:48 PM 41.2125 -83.9722 273° West 352 405 36,000  Level Chicago Center
Wed 08:23:50 PM 41.2186 -84.1017 274° West 351 404 36,000  Level Chicago Center
Wed 08:24:52 PM 41.2233 -84.2325 273° West 354 407 36,000 -576 Level Chicago Center
Wed 08:25:55 PM 41.2272 -84.3861 272° West 349 402 34,800 -960 Descending Chicago Center
Wed 08:26:57 PM 41.2311 -84.5114 272° West 342 394 34,000 -387 Descending Chicago Center
Wed 08:27:59 PM 41.2347 -84.6336 272° West 332 382 34,000  Level Chicago Center
Wed 08:29:01 PM 41.2425 -84.7494 275° West 319 367 34,000 -387 Level Chicago Center
Wed 08:30:03 PM 41.2603 -84.8653 282° West 320 368 33,200 -871 Descending Chicago Center
Wed 08:31:05 PM 41.2789 -84.9897 281° West 339 390 32,200 -1,065 Descending Chicago Center
Wed 08:32:07 PM 41.3014 -85.1481 281° West 358 412 31,000 -1,065 Descending Chicago Center
Wed 08:33:09 PM 41.3208 -85.2842 281° West 369 425 30,000 -968 Descending Chicago Center
Wed 08:34:11 PM 41.3408 -85.4200 281° West 371 427 29,000 -968 Descending Chicago Center
Wed 08:35:13 PM 41.3586 -85.5544 280° West 367 422 28,000 -960 Descending Chicago Center
Wed 08:36:16 PM 41.3772 -85.6892 280° West 367 422 27,000 -1,008 Descending Chicago Center
Wed 08:37:18 PM 41.3964 -85.8250 281° West 370 426 25,900 -968 Descending Chicago Center
Wed 08:38:20 PM 41.4144 -85.9625 280° West 374 430 25,000 -774 Descending Chicago Center
Wed 08:39:22 PM 41.4333 -86.1028 280° West 383 441 24,300 -1,258 Descending Chicago Center
Wed 08:40:24 PM 41.4569 -86.2731 281° West 388 447 22,400 -1,935 Descending Chicago Center
Wed 08:41:26 PM 41.4750 -86.4125 280° West 380 437 20,300 -1,984 Descending Chicago Center
Wed 08:42:28 PM 41.4933 -86.5481 280° West 372 428 18,300 -1,694 Descending Chicago Center
Wed 08:43:30 PM 41.5100 -86.6794 280° West 362 417 16,800 -1,403 Descending Chicago Center
Wed 08:44:32 PM 41.5311 -86.8283 281° West 357 411 15,400 -1,161 Descending Chicago Center
Wed 08:45:34 PM 41.5472 -86.9556 280° West 350 403 14,400 -1,008 Descending Chicago Center
Wed 08:46:37 PM 41.5639 -87.0944 279° West 352 405 13,300 -1,056 Descending Chicago Center
Wed 08:47:39 PM 41.5800 -87.2208 280° West 347 399 12,200 -581 Descending Chicago Center
Wed 08:48:41 PM 41.6422 -87.3272 308° West 345 397 12,100 -387 Descending Chicago Center
Wed 08:49:43 PM 41.7008 -87.4247 309° West 340 391 11,400 -871 Descending Chicago Center
Wed 08:50:45 PM 41.7544 -87.5358 303° West 334 384 10,300 -629 Descending Chicago Center
Wed 08:51:47 PM 41.8036 -87.6375 303° West 327 376 10,100 -435 Descending Chicago Center
Wed 08:52:49 PM 41.8497 -87.7322 303° West 278 320 9,400 -1,065 Descending Chicago Center
Wed 08:53:51 PM 41.8856 -87.8197 299° West 272 313 7,900 -1,314 Descending Chicago Center
Wed 08:54:34 PM 41.8833 -87.9000 268° West 281 323 7,100 -641 Descending Chicago TRACON
Wed 08:55:34 PM 41.8833 -87.9833 270° West 243 280 6,800 -667 Descending Chicago TRACON
Wed 08:57:34 PM 41.9000 -88.1667 277° West 237 273 5,100 -721 Descending Chicago TRACON
Wed 08:59:02 PM 41.9608 -88.1253 27° Northeast 213 245 4,300 -700 Descending Chicago Center
Wed 08:59:34 PM 41.9667 -88.1000 73° East 177 204 3,700 -1,113 Descending Chicago TRACON
Wed 09:01:06 PM 41.9647 -88.0117 92° East 136 157 2,000 -935 Descending Chicago Center
Wed 09:02:08 PM 41.9644 -87.9683 90° East 119 137 1,300 -581 Descending Chicago Center
Wed 09:03:10 PM 41.9642 -87.9256 90° East 124 143 800 -484 Descending Chicago Center

Login

Don't have an account? Register now (free) for customized features, flight alerts, and more!